KSUUKRDD

Guest
Details From KSUU - Travis AFB
To KRDD - Redding Muni
Flight Number -
Tags generated
Created
Modified
Stats Distance 136 nm / 252 km
Max Altitude 16,400 ft / 4,999 m
Waypoints 3
Social Downloads 5
Likes 0
Share VATSIM

Download

Looking for another format? Having issues loading an existing format? Contact us
Advertisement - Login to hide

Notes

Basic altitude profile: - Ascent Rate: 2500ft/min - Ascent Speed: 250kts - Cruise Altitude: 35000ft - Cruise Speed: 420kts - Descent Rate: 1500ft/min - Descent Speed: 250kts Options: - Use NATs: yes - Use PACOTS: yes - Use low airways: yes - Use high airways: yes

Route

KSUU ILA KRDD

ID Type Via Altitude Latitude Longitude Leg Dist Tot Dist Heading (true) Name
O KSUU APT - 0 ft / 0 m 38.26254˚ -121.92757˚ - 0 nm - Travis AFB
ILA VOR - 16,400 ft / 4,999 m 39.07114˚ -122.02725˚ 48 nm 48 nm 355° / 354° WILLIAMS VORTAC
O KRDD APT - 0 ft / 0 m 40.50865˚ -122.29310˚ 87 nm 135 nm 352° / 352° Redding Muni

Altitude Profile

Advertisement - Login to hide

KSUU

Details ICAO KSUU (SUU)
Name Travis AFB
Region United States
Timezone America/Los_Angeles (UTC-8.0)
Stats Elevation 62 ft / 19 m (AMSL)
Location 38.262544° -121.927570°
Runways 2
Magnetic Variation 13.535° E

METAR

KSUU 121758Z AUTO 04003KT 10SM CLR 08/03 A3036 RMK AO2 SLP288 T00830031 10083 21028 52008

Decode

TAF

Not found

Departure Runways

ID Width Length Bearing (true) Bearing (mag) Surface Threshold Offset Overrun Length
03L 150 ft / 46 m 10,998 ft / 3,352 m 47.54° 34.01° Asphalt 0 ft / 0 m 1,000 ft / 305 m
03R 150 ft / 46 m 10,989 ft / 3,350 m 47.55° 34.02° Concrete 0 ft / 0 m 1,000 ft / 305 m
21L 150 ft / 46 m 10,989 ft / 3,350 m 227.57° 214.04° Concrete 0 ft / 0 m 1,000 ft / 305 m
21R 150 ft / 46 m 10,998 ft / 3,352 m 227.55° 214.02° Asphalt 0 ft / 0 m 0 ft / 0 m

KRDD

Details ICAO KRDD (RDD)
Name Redding Muni
Region United States
Timezone America/Los_Angeles (UTC-8.0)
Stats Elevation 502 ft / 153 m (AMSL)
Location 40.508653° -122.293102°
Runways 2
Magnetic Variation 14.086° E

METAR

KRDD 121753Z 00000KT 10SM CLR 04/M01 A3035 RMK AO2 SLP278 T00441006 10050 21028 50002

Decode

TAF

KRDD 121737Z 1218/1318 VRB04KT P6SM SKC

Decode

Destination Runways

ID Width Length Bearing (true) Bearing (mag) Surface Threshold Offset Overrun Length
12 150 ft / 46 m 5,067 ft / 1,545 m 140.20° 126.11° Asphalt 0 ft / 0 m 0 ft / 0 m
16 150 ft / 46 m 7,015 ft / 2,138 m 180.07° 165.98° Asphalt 0 ft / 0 m 0 ft / 0 m
30 150 ft / 46 m 5,067 ft / 1,545 m 320.21° 306.12° Asphalt 498 ft / 152 m 0 ft / 0 m
34 150 ft / 46 m 7,015 ft / 2,138 m 0.07° 345.98° Asphalt 0 ft / 0 m 0 ft / 0 m

Approach Navaids

Runway Type Ident Frequency Range Bearing (true) Bearing (mag) Slope Elevation
34 Localiser IRDD 108.70 MHz 18 nm / 33 km 0.07° 345.99° - 508 ft / 155 m (AMSL)
34 Glidescope IRDD 108.70 MHz 10 nm / 19 km 0.07° 345.99° 3.00° 490 ft / 149 m (AMSL)